Terminal Aerodrome Forecast
Issued by NWS

Home | Current Version | Previous Version | Text Only | Print | Product List | Glossary On
Versions: 1 2 3 4 5 6 7 8 9 10 11 12 13 14 15
860
FTUS45 KABQ 251923 AAA
TAFGUP
TAF AMD
KGUP 251923Z 2519/2618 25011KT P6SM VCTS SCT060CB BKN090
      TEMPO 2520/2522 VRB15G25KT 6SM -SHRA BKN060
     FM252200 24011KT P6SM VCSH SCT060 BKN090
     FM260400 05006KT P6SM VCSH SCT060 BKN090 PROB30 2604/2607
      VRB15G25KT 6SM -TSRA BKN060CB
     FM261200 VRB06KT P6SM SCT100=

USA.gov is the U.S. government's official web portal to all federal, state and local government web resources and services.